Terminal Aerodrome Forecast
Issued by NWS Binghamton, NY

Home | Current Version | Previous Version | Text Only | Print | Product List | Glossary On
Versions: 1 2 3 4 5 6 7 8 9 10 11 12 13 14 15 16 17
000
FTUS41 KBGM 241129
TAFBGM
TAF
KBGM 241129Z 2412/2512 14004KT 3SM BR OVC080
      TEMPO 2412/2414 2SM BR
     FM241500 18009KT P6SM BKN045
     FM241900 19013G21KT P6SM SCT080
     FM250300 18012KT P6SM SCT040 WS020/21040KT
     FM250700 18011G19KT P6SM BKN030=

USA.gov is the U.S. government's official web portal to all federal, state and local government web resources and services.